sensor_id;sensor_type;location;lat;lon;timestamp;P1;P2;P0
28026;PMS5003;15344;52.342;-1.290;2023-03-01T00:00:17;3;2;
28026;PMS5003;15344;52.342;-1.290;2023-03-01T00:02:43;1;1;
28026;PMS5003;15344;52.342;-1.290;2023-03-01T00:05:08;1;1;
28026;PMS5003;15344;52.342;-1.290;2023-03-01T00:07:34;2;1;
28026;PMS5003;15344;52.342;-1.290;2023-03-01T00:10:00;0;0;
28026;PMS5003;15344;52.342;-1.290;2023-03-01T00:12:25;3;1;
28026;PMS5003;15344;52.342;-1.290;2023-03-01T00:14:50;1;1;
28026;PMS5003;15344;52.342;-1.290;2023-03-01T00:17:16;2;2;
28026;PMS5003;15344;52.342;-1.290;2023-03-01T00:19:41;0;0;
28026;PMS5003;15344;52.342;-1.290;2023-03-01T00:22:07;1;1;
28026;PMS5003;15344;52.342;-1.290;2023-03-01T00:24:32;0;0;
28026;PMS5003;15344;52.342;-1.290;2023-03-01T00:26:58;2;0;
28026;PMS5003;15344;52.342;-1.290;2023-03-01T00:29:24;1;1;
28026;PMS5003;15344;52.342;-1.290;2023-03-01T00:31:49;0;0;
28026;PMS5003;15344;52.342;-1.290;2023-03-01T00:34:15;0;0;
28026;PMS5003;15344;52.342;-1.290;2023-03-01T00:36:40;3;2;
28026;PMS5003;15344;52.342;-1.290;2023-03-01T00:39:07;1;1;
28026;PMS5003;15344;52.342;-1.290;2023-03-01T00:41:31;1;1;
28026;PMS5003;15344;52.342;-1.290;2023-03-01T00:43:56;1;1;
28026;PMS5003;15344;52.342;-1.290;2023-03-01T00:46:23;2;0;
28026;PMS5003;15344;52.342;-1.290;2023-03-01T00:48:48;0;0;
28026;PMS5003;15344;52.342;-1.290;2023-03-01T00:51:14;3;1;
28026;PMS5003;15344;52.342;-1.290;2023-03-01T00:53:39;1;1;
28026;PMS5003;15344;52.342;-1.290;2023-03-01T00:56:05;0;0;
28026;PMS5003;15344;52.342;-1.290;2023-03-01T00:58:30;0;0;
28026;PMS5003;15344;52.342;-1.290;2023-03-01T01:00:55;1;0;
28026;PMS5003;15344;52.342;-1.290;2023-03-01T01:03:21;0;0;
28026;PMS5003;15344;52.342;-1.290;2023-03-01T01:05:47;0;0;
28026;PMS5003;15344;52.342;-1.290;2023-03-01T01:08:12;0;0;
28026;PMS5003;15344;52.342;-1.290;2023-03-01T01:10:37;2;0;
28026;PMS5003;15344;52.342;-1.290;2023-03-01T01:13:03;1;1;
28026;PMS5003;15344;52.342;-1.290;2023-03-01T01:15:29;1;0;
28026;PMS5003;15344;52.342;-1.290;2023-03-01T01:17:54;1;1;
28026;PMS5003;15344;52.342;-1.290;2023-03-01T01:20:19;0;0;
28026;PMS5003;15344;52.342;-1.290;2023-03-01T01:22:45;0;0;
28026;PMS5003;15344;52.342;-1.290;2023-03-01T01:25:10;1;1;
28026;PMS5003;15344;52.342;-1.290;2023-03-01T01:27:36;1;1;
28026;PMS5003;15344;52.342;-1.290;2023-03-01T01:30:02;0;0;
28026;PMS5003;15344;52.342;-1.290;2023-03-01T01:32:27;0;0;
28026;PMS5003;15344;52.342;-1.290;2023-03-01T01:34:53;1;1;
28026;PMS5003;15344;52.342;-1.290;2023-03-01T01:37:18;1;1;
28026;PMS5003;15344;52.342;-1.290;2023-03-01T01:39:44;2;1;
28026;PMS5003;15344;52.342;-1.290;2023-03-01T01:42:11;1;1;
28026;PMS5003;15344;52.342;-1.290;2023-03-01T01:44:35;0;0;
28026;PMS5003;15344;52.342;-1.290;2023-03-01T01:47:01;0;0;
28026;PMS5003;15344;52.342;-1.290;2023-03-01T01:49:27;0;0;
28026;PMS5003;15344;52.342;-1.290;2023-03-01T01:51:54;1;1;
28026;PMS5003;15344;52.342;-1.290;2023-03-01T01:54:18;1;1;
28026;PMS5003;15344;52.342;-1.290;2023-03-01T01:56:44;3;1;
28026;PMS5003;15344;52.342;-1.290;2023-03-01T01:59:08;3;2;
28026;PMS5003;15344;52.342;-1.290;2023-03-01T02:01:33;3;3;
28026;PMS5003;15344;52.342;-1.290;2023-03-01T02:03:59;1;1;
28026;PMS5003;15344;52.342;-1.290;2023-03-01T02:06:26;1;1;
28026;PMS5003;15344;52.342;-1.290;2023-03-01T02:08:50;1;1;
28026;PMS5003;15344;52.342;-1.290;2023-03-01T02:11:15;1;1;
28026;PMS5003;15344;52.342;-1.290;2023-03-01T02:13:41;2;2;
28026;PMS5003;15344;52.342;-1.290;2023-03-01T02:16:08;5;1;
28026;PMS5003;15344;52.342;-1.290;2023-03-01T02:18:32;2;2;
28026;PMS5003;15344;52.342;-1.290;2023-03-01T02:21:01;1;1;
28026;PMS5003;15344;52.342;-1.290;2023-03-01T02:23:23;2;2;
28026;PMS5003;15344;52.342;-1.290;2023-03-01T02:25:50;3;1;
28026;PMS5003;15344;52.342;-1.290;2023-03-01T02:30:39;2;2;
28026;PMS5003;15344;52.342;-1.290;2023-03-01T02:33:05;3;1;
28026;PMS5003;15344;52.342;-1.290;2023-03-01T02:35:31;2;1;
28026;PMS5003;15344;52.342;-1.290;2023-03-01T02:37:56;6;3;
28026;PMS5003;15344;52.342;-1.290;2023-03-01T02:40:22;3;2;
28026;PMS5003;15344;52.342;-1.290;2023-03-01T02:42:48;1;1;
28026;PMS5003;15344;52.342;-1.290;2023-03-01T02:45:13;1;1;
28026;PMS5003;15344;52.342;-1.290;2023-03-01T02:47:38;3;3;
28026;PMS5003;15344;52.342;-1.290;2023-03-01T02:52:34;1;1;
28026;PMS5003;15344;52.342;-1.290;2023-03-01T02:54:57;1;1;
28026;PMS5003;15344;52.342;-1.290;2023-03-01T02:57:20;1;1;
28026;PMS5003;15344;52.342;-1.290;2023-03-01T02:59:46;3;1;
28026;PMS5003;15344;52.342;-1.290;2023-03-01T03:04:37;2;2;
28026;PMS5003;15344;52.342;-1.290;2023-03-01T03:07:02;4;1;
28026;PMS5003;15344;52.342;-1.290;2023-03-01T03:09:28;1;1;
28026;PMS5003;15344;52.342;-1.290;2023-03-01T03:11:54;2;2;
28026;PMS5003;15344;52.342;-1.290;2023-03-01T03:14:19;0;0;
28026;PMS5003;15344;52.342;-1.290;2023-03-01T03:16:45;1;1;
28026;PMS5003;15344;52.342;-1.290;2023-03-01T03:19:10;2;2;
28026;PMS5003;15344;52.342;-1.290;2023-03-01T03:21:36;4;1;
28026;PMS5003;15344;52.342;-1.290;2023-03-01T03:24:01;3;3;
28026;PMS5003;15344;52.342;-1.290;2023-03-01T03:26:27;2;2;
28026;PMS5003;15344;52.342;-1.290;2023-03-01T03:28:53;3;2;
28026;PMS5003;15344;52.342;-1.290;2023-03-01T03:31:18;3;1;
28026;PMS5003;15344;52.342;-1.290;2023-03-01T03:33:44;1;1;
28026;PMS5003;15344;52.342;-1.290;2023-03-01T03:36:09;3;2;
28026;PMS5003;15344;52.342;-1.290;2023-03-01T03:38:35;2;2;
28026;PMS5003;15344;52.342;-1.290;2023-03-01T03:41:01;5;2;
28026;PMS5003;15344;52.342;-1.290;2023-03-01T03:43:26;2;1;
28026;PMS5003;15344;52.342;-1.290;2023-03-01T03:45:51;4;4;
28026;PMS5003;15344;52.342;-1.290;2023-03-01T03:48:17;1;1;
28026;PMS5003;15344;52.342;-1.290;2023-03-01T03:50:46;1;1;
28026;PMS5003;15344;52.342;-1.290;2023-03-01T03:53:09;1;1;
28026;PMS5003;15344;52.342;-1.290;2023-03-01T03:55:33;4;1;
28026;PMS5003;15344;52.342;-1.290;2023-03-01T03:57:59;4;3;
28026;PMS5003;15344;52.342;-1.290;2023-03-01T04:00:24;2;2;
28026;PMS5003;15344;52.342;-1.290;2023-03-01T04:02:50;3;2;
28026;PMS5003;15344;52.342;-1.290;2023-03-01T04:05:16;3;3;
28026;PMS5003;15344;52.342;-1.290;2023-03-01T04:07:41;2;2;
28026;PMS5003;15344;52.342;-1.290;2023-03-01T04:10:08;3;3;
28026;PMS5003;15344;52.342;-1.290;2023-03-01T04:12:32;1;1;
28026;PMS5003;15344;52.342;-1.290;2023-03-01T04:14:57;4;2;
28026;PMS5003;15344;52.342;-1.290;2023-03-01T04:17:23;8;6;
28026;PMS5003;15344;52.342;-1.290;2023-03-01T04:19:49;4;2;
28026;PMS5003;15344;52.342;-1.290;2023-03-01T04:22:14;1;1;
28026;PMS5003;15344;52.342;-1.290;2023-03-01T04:24:39;2;2;
28026;PMS5003;15344;52.342;-1.290;2023-03-01T04:27:05;2;2;
28026;PMS5003;15344;52.342;-1.290;2023-03-01T04:29:30;2;1;
28026;PMS5003;15344;52.342;-1.290;2023-03-01T04:31:56;1;1;
28026;PMS5003;15344;52.342;-1.290;2023-03-01T04:34:22;2;2;
28026;PMS5003;15344;52.342;-1.290;2023-03-01T04:36:47;3;2;
28026;PMS5003;15344;52.342;-1.290;2023-03-01T04:39:13;4;1;
28026;PMS5003;15344;52.342;-1.290;2023-03-01T04:41:39;1;1;
28026;PMS5003;15344;52.342;-1.290;2023-03-01T04:44:04;2;2;
28026;PMS5003;15344;52.342;-1.290;2023-03-01T04:46:29;2;2;
28026;PMS5003;15344;52.342;-1.290;2023-03-01T04:48:55;5;1;
28026;PMS5003;15344;52.342;-1.290;2023-03-01T04:51:21;4;2;
28026;PMS5003;15344;52.342;-1.290;2023-03-01T04:53:47;2;2;
28026;PMS5003;15344;52.342;-1.290;2023-03-01T04:56:12;2;2;
28026;PMS5003;15344;52.342;-1.290;2023-03-01T04:58:37;2;1;
28026;PMS5003;15344;52.342;-1.290;2023-03-01T05:01:07;3;2;
28026;PMS5003;15344;52.342;-1.290;2023-03-01T05:03:29;4;1;
28026;PMS5003;15344;52.342;-1.290;2023-03-01T05:05:54;1;1;
28026;PMS5003;15344;52.342;-1.290;2023-03-01T05:08:19;5;2;
28026;PMS5003;15344;52.342;-1.290;2023-03-01T05:10:46;3;1;
28026;PMS5003;15344;52.342;-1.290;2023-03-01T05:13:11;5;2;
28026;PMS5003;15344;52.342;-1.290;2023-03-01T05:15:36;3;1;
28026;PMS5003;15344;52.342;-1.290;2023-03-01T05:18:01;7;4;
28026;PMS5003;15344;52.342;-1.290;2023-03-01T05:20:27;5;3;
28026;PMS5003;15344;52.342;-1.290;2023-03-01T05:22:54;1;1;
28026;PMS5003;15344;52.342;-1.290;2023-03-01T05:25:18;6;2;
28026;PMS5003;15344;52.342;-1.290;2023-03-01T05:27:44;3;2;
28026;PMS5003;15344;52.342;-1.290;2023-03-01T05:30:10;1;1;
28026;PMS5003;15344;52.342;-1.290;2023-03-01T05:32:35;1;1;
28026;PMS5003;15344;52.342;-1.290;2023-03-01T05:35:00;2;1;
28026;PMS5003;15344;52.342;-1.290;2023-03-01T05:37:26;1;1;
28026;PMS5003;15344;52.342;-1.290;2023-03-01T05:39:51;1;0;
28026;PMS5003;15344;52.342;-1.290;2023-03-01T05:42:17;1;0;
28026;PMS5003;15344;52.342;-1.290;2023-03-01T05:44:42;2;1;
28026;PMS5003;15344;52.342;-1.290;2023-03-01T05:47:08;2;2;
28026;PMS5003;15344;52.342;-1.290;2023-03-01T05:49:33;2;2;
28026;PMS5003;15344;52.342;-1.290;2023-03-01T05:51:59;2;2;
28026;PMS5003;15344;52.342;-1.290;2023-03-01T05:54:24;4;2;
28026;PMS5003;15344;52.342;-1.290;2023-03-01T05:56:50;2;1;
28026;PMS5003;15344;52.342;-1.290;2023-03-01T05:59:15;3;3;
28026;PMS5003;15344;52.342;-1.290;2023-03-01T06:01:41;5;3;
28026;PMS5003;15344;52.342;-1.290;2023-03-01T06:04:06;3;2;
28026;PMS5003;15344;52.342;-1.290;2023-03-01T06:06:33;3;3;
28026;PMS5003;15344;52.342;-1.290;2023-03-01T06:08:58;3;3;
28026;PMS5003;15344;52.342;-1.290;2023-03-01T06:11:23;4;4;
28026;PMS5003;15344;52.342;-1.290;2023-03-01T06:13:49;6;3;
28026;PMS5003;15344;52.342;-1.290;2023-03-01T06:16:14;6;6;
28026;PMS5003;15344;52.342;-1.290;2023-03-01T06:18:40;6;5;
28026;PMS5003;15344;52.342;-1.290;2023-03-01T06:21:06;8;4;
28026;PMS5003;15344;52.342;-1.290;2023-03-01T06:23:31;5;5;
28026;PMS5003;15344;52.342;-1.290;2023-03-01T06:25:56;8;7;
28026;PMS5003;15344;52.342;-1.290;2023-03-01T06:28:22;10;6;
28026;PMS5003;15344;52.342;-1.290;2023-03-01T06:30:47;8;5;
28026;PMS5003;15344;52.342;-1.290;2023-03-01T06:33:13;4;4;
28026;PMS5003;15344;52.342;-1.290;2023-03-01T06:35:38;9;7;
28026;PMS5003;15344;52.342;-1.290;2023-03-01T06:38:04;9;4;
28026;PMS5003;15344;52.342;-1.290;2023-03-01T06:40:30;4;4;
28026;PMS5003;15344;52.342;-1.290;2023-03-01T06:42:55;4;4;
28026;PMS5003;15344;52.342;-1.290;2023-03-01T06:45:21;3;3;
28026;PMS5003;15344;52.342;-1.290;2023-03-01T06:47:47;3;3;
28026;PMS5003;15344;52.342;-1.290;2023-03-01T06:50:12;8;5;
28026;PMS5003;15344;52.342;-1.290;2023-03-01T06:52:37;5;5;
28026;PMS5003;15344;52.342;-1.290;2023-03-01T06:55:03;4;3;
28026;PMS5003;15344;52.342;-1.290;2023-03-01T06:57:28;5;4;
28026;PMS5003;15344;52.342;-1.290;2023-03-01T06:59:54;6;5;
28026;PMS5003;15344;52.342;-1.290;2023-03-01T07:02:19;6;4;
28026;PMS5003;15344;52.342;-1.290;2023-03-01T07:04:45;2;2;
28026;PMS5003;15344;52.342;-1.290;2023-03-01T07:07:10;5;3;
28026;PMS5003;15344;52.342;-1.290;2023-03-01T07:09:36;1;1;
28026;PMS5003;15344;52.342;-1.290;2023-03-01T07:12:02;2;2;
28026;PMS5003;15344;52.342;-1.290;2023-03-01T07:14:27;3;2;
28026;PMS5003;15344;52.342;-1.290;2023-03-01T07:16:53;3;3;
28026;PMS5003;15344;52.342;-1.290;2023-03-01T07:19:18;2;2;
28026;PMS5003;15344;52.342;-1.290;2023-03-01T07:21:44;1;1;
28026;PMS5003;15344;52.342;-1.290;2023-03-01T07:24:10;2;2;
28026;PMS5003;15344;52.342;-1.290;2023-03-01T07:26:35;1;1;
28026;PMS5003;15344;52.342;-1.290;2023-03-01T07:29:01;2;1;
28026;PMS5003;15344;52.342;-1.290;2023-03-01T07:31:26;4;1;
28026;PMS5003;15344;52.342;-1.290;2023-03-01T07:33:51;3;2;
28026;PMS5003;15344;52.342;-1.290;2023-03-01T07:36:17;1;1;
28026;PMS5003;15344;52.342;-1.290;2023-03-01T07:38:42;1;1;
28026;PMS5003;15344;52.342;-1.290;2023-03-01T07:41:08;3;2;
28026;PMS5003;15344;52.342;-1.290;2023-03-01T07:43:33;1;1;
28026;PMS5003;15344;52.342;-1.290;2023-03-01T07:45:59;3;2;
28026;PMS5003;15344;52.342;-1.290;2023-03-01T07:48:24;1;1;
28026;PMS5003;15344;52.342;-1.290;2023-03-01T07:50:50;2;2;
28026;PMS5003;15344;52.342;-1.290;2023-03-01T07:53:15;3;3;
28026;PMS5003;15344;52.342;-1.290;2023-03-01T07:55:41;3;2;
28026;PMS5003;15344;52.342;-1.290;2023-03-01T07:58:06;3;3;
28026;PMS5003;15344;52.342;-1.290;2023-03-01T08:00:32;3;3;
28026;PMS5003;15344;52.342;-1.290;2023-03-01T08:02:58;5;2;
28026;PMS5003;15344;52.342;-1.290;2023-03-01T08:05:23;4;3;
28026;PMS5003;15344;52.342;-1.290;2023-03-01T08:07:48;3;3;
28026;PMS5003;15344;52.342;-1.290;2023-03-01T08:10:14;4;4;
28026;PMS5003;15344;52.342;-1.290;2023-03-01T08:12:40;11;9;
28026;PMS5003;15344;52.342;-1.290;2023-03-01T08:15:06;9;5;
28026;PMS5003;15344;52.342;-1.290;2023-03-01T08:17:31;4;4;
28026;PMS5003;15344;52.342;-1.290;2023-03-01T08:19:56;7;4;
28026;PMS5003;15344;52.342;-1.290;2023-03-01T08:22:22;3;3;
28026;PMS5003;15344;52.342;-1.290;2023-03-01T08:24:47;11;5;
28026;PMS5003;15344;52.342;-1.290;2023-03-01T08:27:14;6;6;
28026;PMS5003;15344;52.342;-1.290;2023-03-01T08:29:38;6;6;
28026;PMS5003;15344;52.342;-1.290;2023-03-01T08:32:04;7;4;
28026;PMS5003;15344;52.342;-1.290;2023-03-01T08:34:29;6;3;
28026;PMS5003;15344;52.342;-1.290;2023-03-01T08:36:54;7;6;
28026;PMS5003;15344;52.342;-1.290;2023-03-01T08:39:20;8;7;
28026;PMS5003;15344;52.342;-1.290;2023-03-01T08:41:46;11;11;
28026;PMS5003;15344;52.342;-1.290;2023-03-01T08:44:12;9;6;
28026;PMS5003;15344;52.342;-1.290;2023-03-01T08:46:38;11;7;
28026;PMS5003;15344;52.342;-1.290;2023-03-01T08:49:03;9;6;
28026;PMS5003;15344;52.342;-1.290;2023-03-01T08:51:28;9;7;
28026;PMS5003;15344;52.342;-1.290;2023-03-01T08:53:54;8;8;
28026;PMS5003;15344;52.342;-1.290;2023-03-01T08:56:19;8;7;
28026;PMS5003;15344;52.342;-1.290;2023-03-01T08:58:45;13;10;
28026;PMS5003;15344;52.342;-1.290;2023-03-01T09:01:11;12;9;
28026;PMS5003;15344;52.342;-1.290;2023-03-01T09:03:36;14;12;
28026;PMS5003;15344;52.342;-1.290;2023-03-01T09:06:02;12;10;
28026;PMS5003;15344;52.342;-1.290;2023-03-01T09:08:27;15;12;
28026;PMS5003;15344;52.342;-1.290;2023-03-01T09:10:53;13;10;
28026;PMS5003;15344;52.342;-1.290;2023-03-01T09:13:18;14;11;
28026;PMS5003;15344;52.342;-1.290;2023-03-01T09:15:44;13;11;
28026;PMS5003;15344;52.342;-1.290;2023-03-01T09:18:09;12;9;
28026;PMS5003;15344;52.342;-1.290;2023-03-01T09:20:34;8;7;
28026;PMS5003;15344;52.342;-1.290;2023-03-01T09:23:00;10;7;
28026;PMS5003;15344;52.342;-1.290;2023-03-01T09:25:25;10;9;
28026;PMS5003;15344;52.342;-1.290;2023-03-01T09:27:51;7;7;
28026;PMS5003;15344;52.342;-1.290;2023-03-01T09:30:15;10;9;
28026;PMS5003;15344;52.342;-1.290;2023-03-01T09:32:40;14;11;
28026;PMS5003;15344;52.342;-1.290;2023-03-01T09:35:06;14;13;
28026;PMS5003;15344;52.342;-1.290;2023-03-01T09:37:32;13;11;
28026;PMS5003;15344;52.342;-1.290;2023-03-01T09:39:57;14;10;
28026;PMS5003;15344;52.342;-1.290;2023-03-01T09:42:22;11;9;
28026;PMS5003;15344;52.342;-1.290;2023-03-01T09:44:48;13;9;
28026;PMS5003;15344;52.342;-1.290;2023-03-01T09:47:15;9;7;
28026;PMS5003;15344;52.342;-1.290;2023-03-01T09:49:39;9;9;
28026;PMS5003;15344;52.342;-1.290;2023-03-01T09:52:06;15;15;
28026;PMS5003;15344;52.342;-1.290;2023-03-01T09:54:29;10;9;
28026;PMS5003;15344;52.342;-1.290;2023-03-01T09:57:01;15;8;
28026;PMS5003;15344;52.342;-1.290;2023-03-01T09:59:21;9;9;
28026;PMS5003;15344;52.342;-1.290;2023-03-01T10:01:46;12;7;
28026;PMS5003;15344;52.342;-1.290;2023-03-01T10:04:16;9;8;
28026;PMS5003;15344;52.342;-1.290;2023-03-01T10:06:35;7;7;
28026;PMS5003;15344;52.342;-1.290;2023-03-01T10:09:02;12;9;
28026;PMS5003;15344;52.342;-1.290;2023-03-01T10:11:26;6;6;
28026;PMS5003;15344;52.342;-1.290;2023-03-01T10:13:54;8;6;
28026;PMS5003;15344;52.342;-1.290;2023-03-01T10:16:17;9;6;
28026;PMS5003;15344;52.342;-1.290;2023-03-01T10:18:42;10;9;
28026;PMS5003;15344;52.342;-1.290;2023-03-01T10:21:12;11;11;
28026;PMS5003;15344;52.342;-1.290;2023-03-01T10:23:33;9;7;
28026;PMS5003;15344;52.342;-1.290;2023-03-01T10:26:05;11;7;
28026;PMS5003;15344;52.342;-1.290;2023-03-01T10:28:25;8;8;
28026;PMS5003;15344;52.342;-1.290;2023-03-01T10:30:49;6;6;
28026;PMS5003;15344;52.342;-1.290;2023-03-01T10:33:16;11;9;
28026;PMS5003;15344;52.342;-1.290;2023-03-01T10:35:40;8;6;
28026;PMS5003;15344;52.342;-1.290;2023-03-01T10:38:06;10;8;
28026;PMS5003;15344;52.342;-1.290;2023-03-01T10:40:32;10;7;
28026;PMS5003;15344;52.342;-1.290;2023-03-01T10:42:57;10;7;
28026;PMS5003;15344;52.342;-1.290;2023-03-01T10:45:30;7;7;
28026;PMS5003;15344;52.342;-1.290;2023-03-01T10:47:48;10;7;
28026;PMS5003;15344;52.342;-1.290;2023-03-01T10:52:40;8;5;
28026;PMS5003;15344;52.342;-1.290;2023-03-01T10:55:19;7;5;
28026;PMS5003;15344;52.342;-1.290;2023-03-01T10:57:32;7;4;
28026;PMS5003;15344;52.342;-1.290;2023-03-01T11:00:00;7;5;
28026;PMS5003;15344;52.342;-1.290;2023-03-01T11:02:22;8;7;
28026;PMS5003;15344;52.342;-1.290;2023-03-01T11:07:11;5;4;
28026;PMS5003;15344;52.342;-1.290;2023-03-01T11:09:37;7;6;
28026;PMS5003;15344;52.342;-1.290;2023-03-01T11:12:03;5;5;
28026;PMS5003;15344;52.342;-1.290;2023-03-01T11:14:29;6;6;
28026;PMS5003;15344;52.342;-1.290;2023-03-01T11:19:20;9;4;
28026;PMS5003;15344;52.342;-1.290;2023-03-01T11:21:49;5;4;
28026;PMS5003;15344;52.342;-1.290;2023-03-01T11:24:10;8;8;
28026;PMS5003;15344;52.342;-1.290;2023-03-01T11:26:36;11;7;
28026;PMS5003;15344;52.342;-1.290;2023-03-01T11:29:03;8;7;
28026;PMS5003;15344;52.342;-1.290;2023-03-01T11:31:26;7;5;
28026;PMS5003;15344;52.342;-1.290;2023-03-01T11:33:53;9;7;
28026;PMS5003;15344;52.342;-1.290;2023-03-01T11:36:20;5;5;
28026;PMS5003;15344;52.342;-1.290;2023-03-01T11:38:42;8;8;
28026;PMS5003;15344;52.342;-1.290;2023-03-01T11:41:11;5;5;
28026;PMS5003;15344;52.342;-1.290;2023-03-01T11:43:35;7;7;
28026;PMS5003;15344;52.342;-1.290;2023-03-01T11:46:05;13;8;
28026;PMS5003;15344;52.342;-1.290;2023-03-01T11:48:29;4;4;
28026;PMS5003;15344;52.342;-1.290;2023-03-01T11:50:50;4;4;
28026;PMS5003;15344;52.342;-1.290;2023-03-01T11:53:21;6;6;
28026;PMS5003;15344;52.342;-1.290;2023-03-01T11:55:45;9;7;
28026;PMS5003;15344;52.342;-1.290;2023-03-01T12:00:37;9;7;
28026;PMS5003;15344;52.342;-1.290;2023-03-01T12:03:02;6;6;
28026;PMS5003;15344;52.342;-1.290;2023-03-01T12:05:25;12;7;
28026;PMS5003;15344;52.342;-1.290;2023-03-01T12:07:51;7;6;
28026;PMS5003;15344;52.342;-1.290;2023-03-01T12:10:20;5;5;
28026;PMS5003;15344;52.342;-1.290;2023-03-01T12:12:43;6;5;
28026;PMS5003;15344;52.342;-1.290;2023-03-01T12:15:11;4;4;
28026;PMS5003;15344;52.342;-1.290;2023-03-01T12:19:59;5;3;
28026;PMS5003;15344;52.342;-1.290;2023-03-01T12:22:23;5;5;
28026;PMS5003;15344;52.342;-1.290;2023-03-01T12:24:48;4;4;
28026;PMS5003;15344;52.342;-1.290;2023-03-01T12:27:15;8;6;
28026;PMS5003;15344;52.342;-1.290;2023-03-01T12:29:38;7;5;
28026;PMS5003;15344;52.342;-1.290;2023-03-01T12:32:06;7;6;
28026;PMS5003;15344;52.342;-1.290;2023-03-01T12:34:34;5;4;
28026;PMS5003;15344;52.342;-1.290;2023-03-01T12:36:57;12;7;
28026;PMS5003;15344;52.342;-1.290;2023-03-01T12:39:24;3;3;
28026;PMS5003;15344;52.342;-1.290;2023-03-01T12:41:46;5;5;
28026;PMS5003;15344;52.342;-1.290;2023-03-01T12:44:12;4;3;
28026;PMS5003;15344;52.342;-1.290;2023-03-01T12:46:39;7;4;
28026;PMS5003;15344;52.342;-1.290;2023-03-01T12:49:02;1;1;
28026;PMS5003;15344;52.342;-1.290;2023-03-01T12:51:26;4;2;
28026;PMS5003;15344;52.342;-1.290;2023-03-01T12:53:52;3;3;
28026;PMS5003;15344;52.342;-1.290;2023-03-01T12:56:17;3;3;
28026;PMS5003;15344;52.342;-1.290;2023-03-01T12:58:51;4;2;
28026;PMS5003;15344;52.342;-1.290;2023-03-01T13:01:13;3;2;
28026;PMS5003;15344;52.342;-1.290;2023-03-01T13:03:38;6;3;
28026;PMS5003;15344;52.342;-1.290;2023-03-01T13:06:04;2;1;
28026;PMS5003;15344;52.342;-1.290;2023-03-01T13:08:26;2;2;
28026;PMS5003;15344;52.342;-1.290;2023-03-01T13:10:50;2;2;
28026;PMS5003;15344;52.342;-1.290;2023-03-01T13:13:19;3;3;
28026;PMS5003;15344;52.342;-1.290;2023-03-01T13:15:40;3;3;
28026;PMS5003;15344;52.342;-1.290;2023-03-01T13:20:33;3;3;
28026;PMS5003;15344;52.342;-1.290;2023-03-01T13:23:00;3;1;
28026;PMS5003;15344;52.342;-1.290;2023-03-01T13:25:22;3;1;
28026;PMS5003;15344;52.342;-1.290;2023-03-01T13:27:48;5;2;
28026;PMS5003;15344;52.342;-1.290;2023-03-01T13:32:38;0;0;
28026;PMS5003;15344;52.342;-1.290;2023-03-01T13:35:07;3;2;
28026;PMS5003;15344;52.342;-1.290;2023-03-01T13:37:31;2;1;
28026;PMS5003;15344;52.342;-1.290;2023-03-01T13:39:55;4;2;
28026;PMS5003;15344;52.342;-1.290;2023-03-01T13:44:45;0;0;
28026;PMS5003;15344;52.342;-1.290;2023-03-01T13:47:14;1;1;
28026;PMS5003;15344;52.342;-1.290;2023-03-01T13:49:42;1;1;
28026;PMS5003;15344;52.342;-1.290;2023-03-01T13:52:02;1;1;
28026;PMS5003;15344;52.342;-1.290;2023-03-01T13:54:29;2;0;
28026;PMS5003;15344;52.342;-1.290;2023-03-01T13:56:53;2;1;
28026;PMS5003;15344;52.342;-1.290;2023-03-01T13:59:19;2;2;
28026;PMS5003;15344;52.342;-1.290;2023-03-01T14:01:44;3;2;
28026;PMS5003;15344;52.342;-1.290;2023-03-01T14:06:34;3;1;
28026;PMS5003;15344;52.342;-1.290;2023-03-01T14:09:03;0;0;
28026;PMS5003;15344;52.342;-1.290;2023-03-01T14:11:30;1;1;
28026;PMS5003;15344;52.342;-1.290;2023-03-01T14:13:54;0;0;
28026;PMS5003;15344;52.342;-1.290;2023-03-01T14:16:21;1;1;
28026;PMS5003;15344;52.342;-1.290;2023-03-01T14:18:43;0;0;
28026;PMS5003;15344;52.342;-1.290;2023-03-01T14:21:08;1;1;
28026;PMS5003;15344;52.342;-1.290;2023-03-01T14:23:33;2;0;
28026;PMS5003;15344;52.342;-1.290;2023-03-01T14:25:58;0;0;
28026;PMS5003;15344;52.342;-1.290;2023-03-01T14:28:24;1;1;
28026;PMS5003;15344;52.342;-1.290;2023-03-01T14:30:50;1;1;
28026;PMS5003;15344;52.342;-1.290;2023-03-01T14:33:19;3;1;
28026;PMS5003;15344;52.342;-1.290;2023-03-01T14:35:40;1;0;
28026;PMS5003;15344;52.342;-1.290;2023-03-01T14:38:05;1;1;
28026;PMS5003;15344;52.342;-1.290;2023-03-01T14:40:32;2;1;
28026;PMS5003;15344;52.342;-1.290;2023-03-01T14:42:57;0;0;
28026;PMS5003;15344;52.342;-1.290;2023-03-01T14:45:23;1;1;
28026;PMS5003;15344;52.342;-1.290;2023-03-01T14:47:48;2;2;
28026;PMS5003;15344;52.342;-1.290;2023-03-01T14:50:19;1;1;
28026;PMS5003;15344;52.342;-1.290;2023-03-01T14:52:39;1;1;
28026;PMS5003;15344;52.342;-1.290;2023-03-01T14:55:05;0;0;
28026;PMS5003;15344;52.342;-1.290;2023-03-01T14:57:29;1;1;
28026;PMS5003;15344;52.342;-1.290;2023-03-01T14:59:55;4;1;
28026;PMS5003;15344;52.342;-1.290;2023-03-01T15:02:21;0;0;
28026;PMS5003;15344;52.342;-1.290;2023-03-01T15:04:46;0;0;
28026;PMS5003;15344;52.342;-1.290;2023-03-01T15:07:11;2;0;
28026;PMS5003;15344;52.342;-1.290;2023-03-01T15:09:37;1;0;
28026;PMS5003;15344;52.342;-1.290;2023-03-01T15:14:28;3;1;
28026;PMS5003;15344;52.342;-1.290;2023-03-01T15:16:53;2;2;
28026;PMS5003;15344;52.342;-1.290;2023-03-01T15:19:18;1;1;
28026;PMS5003;15344;52.342;-1.290;2023-03-01T15:21:44;0;0;
28026;PMS5003;15344;52.342;-1.290;2023-03-01T15:24:16;2;1;
28026;PMS5003;15344;52.342;-1.290;2023-03-01T15:43:37;0;0;
28026;PMS5003;15344;52.342;-1.290;2023-03-01T15:45:58;1;1;
28026;PMS5003;15344;52.342;-1.290;2023-03-01T15:48:23;0;0;
28026;PMS5003;15344;52.342;-1.290;2023-03-01T15:50:54;2;1;
28026;PMS5003;15344;52.342;-1.290;2023-03-01T15:53:14;3;1;
28026;PMS5003;15344;52.342;-1.290;2023-03-01T15:55:40;4;3;
28026;PMS5003;15344;52.342;-1.290;2023-03-01T15:58:08;4;1;
28026;PMS5003;15344;52.342;-1.290;2023-03-01T16:00:31;1;1;
28026;PMS5003;15344;52.342;-1.290;2023-03-01T16:02:56;1;0;
28026;PMS5003;15344;52.342;-1.290;2023-03-01T16:05:23;2;0;
28026;PMS5003;15344;52.342;-1.290;2023-03-01T16:07:47;0;0;
28026;PMS5003;15344;52.342;-1.290;2023-03-01T16:10:13;4;1;
28026;PMS5003;15344;52.342;-1.290;2023-03-01T16:12:38;1;1;
28026;PMS5003;15344;52.342;-1.290;2023-03-01T16:15:04;4;2;
28026;PMS5003;15344;52.342;-1.290;2023-03-01T16:17:29;0;0;
28026;PMS5003;15344;52.342;-1.290;2023-03-01T16:19:55;2;2;
28026;PMS5003;15344;52.342;-1.290;2023-03-01T16:22:20;2;0;
28026;PMS5003;15344;52.342;-1.290;2023-03-01T16:24:46;0;0;
28026;PMS5003;15344;52.342;-1.290;2023-03-01T16:27:11;2;2;
28026;PMS5003;15344;52.342;-1.290;2023-03-01T16:29:37;1;1;
28026;PMS5003;15344;52.342;-1.290;2023-03-01T16:32:02;2;2;
28026;PMS5003;15344;52.342;-1.290;2023-03-01T16:34:27;2;1;
28026;PMS5003;15344;52.342;-1.290;2023-03-01T16:36:53;4;1;
28026;PMS5003;15344;52.342;-1.290;2023-03-01T16:39:19;1;1;
28026;PMS5003;15344;52.342;-1.290;2023-03-01T16:41:44;7;4;
28026;PMS5003;15344;52.342;-1.290;2023-03-01T16:44:10;6;6;
28026;PMS5003;15344;52.342;-1.290;2023-03-01T16:46:35;11;6;
28026;PMS5003;15344;52.342;-1.290;2023-03-01T16:49:00;3;3;
28026;PMS5003;15344;52.342;-1.290;2023-03-01T16:51:26;2;2;
28026;PMS5003;15344;52.342;-1.290;2023-03-01T16:53:52;5;3;
28026;PMS5003;15344;52.342;-1.290;2023-03-01T16:56:17;3;2;
28026;PMS5003;15344;52.342;-1.290;2023-03-01T16:58:42;3;2;
28026;PMS5003;15344;52.342;-1.290;2023-03-01T17:01:09;4;2;
28026;PMS5003;15344;52.342;-1.290;2023-03-01T17:03:34;4;2;
28026;PMS5003;15344;52.342;-1.290;2023-03-01T17:06:01;3;1;